Flugplatz Braunschweig Wolfsburg

Bericht für EDVE

vom 14.08. um 21:20 UTC

kein Wind

Sichtweite 10 km oder mehr

bedeckt in 17000 ft

Temperatur 22.0°C

Taupunkt 15.0°C

Luftfeuchtigkeit 65%

Luftdruck 1007 hPa

EDVE 142120Z AUTO 00000KT 9999 OVC170/// 22/15 Q1007
Keine Prognose (TAF) verfügbar.
Impressum